Time;durP1;ratioP1;P1;durP2;ratioP2;P2;SDS_P1;SDS_P2;PMS_P1;PMS_P2;Temp;Humidity;BMP_temperature;BMP_pressure;BME280_temperature;BME280_humidity;BME280_pressure;Samples;Min_cycle;Max_cycle;Signal;HPM_P1;HPM_P2
2021/11/20 00:01:52;;;;;;;13.52;10.00;;;12.30;93.30;;;;;;5073018;28;20545;-79
2021/11/20 00:04:18;;;;;;;14.18;9.55;;;12.40;93.30;;;;;;5075948;28;20028;-80
2021/11/20 00:06:51;;;;;;;13.98;9.75;;;12.40;93.40;;;;;;5071510;28;20490;-81
2021/11/20 00:09:20;;;;;;;14.07;10.38;;;12.20;93.30;;;;;;5067620;28;20035;-81
2021/11/20 00:11:48;;;;;;;14.00;10.27;;;12.20;93.30;;;;;;5075880;28;20035;-80
2021/11/20 00:14:15;;;;;;;15.80;10.73;;;12.30;93.30;;;;;;5075396;28;20028;-79
2021/11/20 00:16:43;;;;;;;14.75;11.25;;;12.40;93.40;;;;;;5070282;28;20082;-79
2021/11/20 00:19:09;;;;;;;15.80;11.02;;;12.30;93.40;;;;;;5066313;28;20020;-80
2021/11/20 00:21:50;;;;;;;14.50;10.30;;;12.20;93.40;;;;;;5075112;28;20035;-80
2021/11/20 00:24:29;;;;;;;15.32;10.57;;;12.20;93.60;;;;;;5067142;28;20020;-79
2021/11/20 00:26:57;;;;;;;13.70;10.75;;;12.20;93.50;;;;;;5075570;28;20509;-79
2021/11/20 00:30:13;;;;;;;13.32;10.25;;;12.10;93.50;;;;;;5075366;28;20108;-79
2021/11/20 00:32:16;;;;;;;15.45;10.77;;;12.20;93.50;;;;;;5059032;28;20032;-81
2021/11/20 00:34:43;;;;;;;14.48;10.35;;;12.10;93.50;;;;;;5069956;28;20060;-79
2021/11/20 00:37:10;;;;;;;12.45;10.35;;;12.10;93.50;;;;;;5075141;28;20556;-79
2021/11/20 00:39:39;;;;;;;14.98;10.88;;;12.20;93.60;;;;;;5069591;28;20020;-79
2021/11/20 00:42:07;;;;;;;15.07;11.35;;;12.20;93.60;;;;;;5075138;28;20483;-79
2021/11/20 00:44:33;;;;;;;14.65;10.90;;;12.20;93.70;;;;;;5068590;28;20031;-79
2021/11/20 00:46:59;;;;;;;14.23;10.90;;;12.20;93.70;;;;;;5073258;28;20098;-79
2021/11/20 00:49:26;;;;;;;16.50;11.45;;;12.10;93.70;;;;;;5089036;23;20564;-79
2021/11/20 00:51:52;;;;;;;13.98;10.38;;;12.00;93.70;;;;;;5023653;28;20528;-82
2021/11/20 00:54:17;;;;;;;12.75;10.07;;;12.10;93.70;;;;;;5024126;28;20034;-82
2021/11/20 00:56:44;;;;;;;13.68;10.40;;;12.20;93.70;;;;;;5024436;28;20580;-82
2021/11/20 00:59:10;;;;;;;14.68;10.48;;;12.20;93.70;;;;;;5023844;28;20021;-82
2021/11/20 01:01:49;;;;;;;15.55;10.93;;;12.00;93.70;;;;;;5023698;28;20028;-82
2021/11/20 01:04:15;;;;;;;13.68;10.52;;;12.10;93.60;;;;;;5034842;28;20067;-85
2021/11/20 01:06:42;;;;;;;14.00;10.50;;;12.10;93.60;;;;;;5024371;28;20026;-82
2021/11/20 01:09:11;;;;;;;14.82;10.32;;;12.20;93.70;;;;;;5023961;28;20063;-82
2021/11/20 01:11:54;;;;;;;14.30;10.25;;;12.20;93.70;;;;;;5017112;28;20025;-82
2021/11/20 01:14:21;;;;;;;14.07;11.25;;;12.20;93.70;;;;;;5003509;28;20120;-84
2021/11/20 01:16:49;;;;;;;13.18;10.57;;;12.00;93.70;;;;;;5002997;28;20030;-82
2021/11/20 01:19:15;;;;;;;15.35;10.98;;;12.10;93.60;;;;;;5021742;28;20022;-81
2021/11/20 01:21:42;;;;;;;15.30;11.18;;;12.10;93.70;;;;;;5003801;28;20112;-83
2021/11/20 01:24:08;;;;;;;15.25;10.88;;;12.20;93.70;;;;;;5013614;28;20580;-82
2021/11/20 01:26:36;;;;;;;14.68;11.15;;;12.20;93.70;;;;;;5020290;28;20032;-83
2021/11/20 01:29:04;;;;;;;13.90;10.90;;;12.00;93.70;;;;;;5019753;28;20030;-82
2021/11/20 01:31:32;;;;;;;13.82;11.18;;;12.00;93.60;;;;;;5019744;28;20137;-81
2021/11/20 01:33:57;;;;;;;14.02;11.23;;;12.20;93.70;;;;;;5019216;28;20102;-81
2021/11/20 01:36:28;;;;;;;15.20;11.30;;;12.10;93.70;;;;;;5019649;28;20452;-81
2021/11/20 01:38:55;;;;;;;14.15;10.85;;;12.20;93.70;;;;;;5022116;28;20022;-82
2021/11/20 01:41:24;;;;;;;14.25;11.13;;;12.20;93.70;;;;;;5019758;28;20117;-81
2021/11/20 01:43:54;;;;;;;14.18;10.55;;;12.20;93.70;;;;;;5020094;28;20034;-83
2021/11/20 01:46:27;;;;;;;13.23;10.27;;;12.00;93.70;;;;;;5021046;28;20112;-82
2021/11/20 01:49:22;;;;;;;14.55;11.45;;;12.20;93.70;;;;;;5020171;28;20026;-82
2021/11/20 01:52:13;;;;;;;16.70;12.20;;;12.20;93.60;;;;;;5017366;28;20535;-82
2021/11/20 01:54:58;;;;;;;15.23;11.32;;;12.10;93.70;;;;;;5020959;28;20029;-81
2021/11/20 01:57:41;;;;;;;15.23;12.10;;;12.20;93.60;;;;;;5020264;28;20080;-82
2021/11/20 02:00:06;;;;;;;15.52;11.50;;;12.20;93.70;;;;;;5021396;28;20064;-83
2021/11/20 02:03:22;;;;;;;17.13;12.32;;;12.20;93.80;;;;;;5018939;28;20030;-83
2021/11/20 02:06:13;;;;;;;14.32;11.82;;;12.20;93.70;;;;;;5002301;28;20022;-82
2021/11/20 02:08:56;;;;;;;16.13;12.00;;;12.20;93.60;;;;;;5018263;28;20501;-83
2021/11/20 02:11:45;;;;;;;15.93;11.98;;;12.20;93.70;;;;;;5019049;28;20036;-82
2021/11/20 02:14:13;;;;;;;15.70;12.60;;;12.10;93.70;;;;;;5002412;28;20061;-83
2021/11/20 02:16:43;;;;;;;16.60;12.50;;;12.20;93.70;;;;;;5020486;28;20087;-82
2021/11/20 02:19:13;;;;;;;16.70;12.07;;;12.20;93.70;;;;;;5021167;28;20041;-82
2021/11/20 02:21:46;;;;;;;16.02;12.27;;;12.30;93.60;;;;;;5018848;28;20524;-84
2021/11/20 02:24:12;;;;;;;16.75;12.18;;;12.10;93.60;;;;;;5018932;28;20026;-81
2021/11/20 02:26:37;;;;;;;15.07;12.13;;;12.20;93.60;;;;;;5020953;28;20034;-83
2021/11/20 02:29:07;;;;;;;16.08;12.68;;;12.20;93.70;;;;;;5019181;28;20124;-82
2021/11/20 02:31:45;;;;;;;16.80;12.80;;;12.20;93.60;;;;;;5018946;28;20028;-83
2021/11/20 02:34:13;;;;;;;16.52;12.77;;;12.20;93.60;;;;;;5018524;28;20026;-83
2021/11/20 02:36:39;;;;;;;15.98;12.23;;;12.20;93.60;;;;;;5018790;28;20116;-83
2021/11/20 02:39:22;;;;;;;16.35;12.63;;;12.20;93.60;;;;;;5018303;28;20056;-82
2021/11/20 02:41:50;;;;;;;16.08;12.75;;;12.10;93.60;;;;;;5002825;28;20457;-82
2021/11/20 02:44:19;;;;;;;16.67;13.88;;;12.20;93.60;;;;;;5003431;28;20072;-82
2021/11/20 02:46:52;;;;;;;18.27;13.88;;;12.10;93.70;;;;;;5006566;28;20481;-82
2021/11/20 02:49:18;;;;;;;17.35;12.90;;;12.20;93.70;;;;;;5006690;28;20098;-83
2021/11/20 02:51:51;;;;;;;16.42;12.15;;;12.20;93.70;;;;;;5023043;28;20038;-83
2021/11/20 02:54:20;;;;;;;16.77;13.48;;;12.20;93.60;;;;;;5022734;28;20030;-82
2021/11/20 02:56:53;;;;;;;19.05;13.52;;;12.20;93.60;;;;;;5006161;28;20021;-82
2021/11/20 02:59:19;;;;;;;17.95;13.23;;;12.30;93.50;;;;;;5024266;28;20052;-82
2021/11/20 03:01:46;;;;;;;18.05;13.82;;;12.30;93.40;;;;;;5023940;28;20032;-84
2021/11/20 03:04:14;;;;;;;16.77;13.27;;;12.30;93.40;;;;;;5022204;28;20109;-82
2021/11/20 03:06:40;;;;;;;17.40;13.82;;;12.30;93.40;;;;;;5023589;28;20493;-82
2021/11/20 03:09:08;;;;;;;19.83;14.48;;;12.40;93.30;;;;;;5022701;28;20052;-83
2021/11/20 03:11:35;;;;;;;19.33;14.23;;;12.30;93.30;;;;;;5022622;28;20490;-82
2021/11/20 03:14:05;;;;;;;18.77;14.00;;;12.30;93.30;;;;;;5022546;28;20093;-82
2021/11/20 03:16:36;;;;;;;18.60;14.18;;;12.30;93.30;;;;;;5022040;28;20074;-84
2021/11/20 03:19:03;;;;;;;19.45;14.63;;;12.30;93.30;;;;;;5022645;28;20048;-82
2021/11/20 03:21:30;;;;;;;24.33;16.23;;;12.40;93.30;;;;;;5022046;28;20085;-84
2021/11/20 03:23:58;;;;;;;23.98;17.02;;;12.30;93.40;;;;;;5024379;28;20029;-83
2021/11/20 03:26:25;;;;;;;22.13;16.10;;;12.20;93.40;;;;;;5022531;28;20053;-83
2021/11/20 03:28:50;;;;;;;24.25;16.15;;;12.30;93.50;;;;;;5022515;28;20030;-83
2021/11/20 03:31:16;;;;;;;20.48;15.50;;;12.30;93.50;;;;;;5021854;28;20120;-82
2021/11/20 03:33:41;;;;;;;28.20;17.48;;;12.20;93.60;;;;;;5005837;28;20484;-82
2021/11/20 03:36:07;;;;;;;22.27;16.98;;;12.20;93.50;;;;;;5021691;28;20512;-83
2021/11/20 03:38:33;;;;;;;26.88;16.52;;;12.20;93.60;;;;;;5022124;28;20030;-84
2021/11/20 03:40:58;;;;;;;26.88;16.60;;;12.10;93.60;;;;;;5021664;28;20022;-83
2021/11/20 03:43:24;;;;;;;24.30;16.58;;;12.20;93.60;;;;;;5023722;28;20025;-80
2021/11/20 03:45:50;;;;;;;25.48;17.58;;;12.20;93.60;;;;;;5023452;28;20548;-82
2021/11/20 03:48:17;;;;;;;24.92;17.02;;;12.20;93.80;;;;;;5017469;28;20116;-83
2021/11/20 03:50:43;;;;;;;22.00;16.23;;;12.10;93.70;;;;;;5024255;28;20075;-82
2021/11/20 03:53:11;;;;;;;27.13;16.52;;;12.20;93.80;;;;;;5043795;28;20029;-83
2021/11/20 03:55:40;;;;;;;29.45;17.45;;;12.20;93.80;;;;;;5023663;28;20025;-81
2021/11/20 03:58:08;;;;;;;26.98;17.85;;;12.20;93.80;;;;;;5025599;28;20029;-83
2021/11/20 04:00:47;;;;;;;28.77;17.67;;;12.20;93.80;;;;;;5042805;28;20523;-82
2021/11/20 04:03:20;;;;;;;27.75;17.15;;;12.10;93.70;;;;;;5043095;28;20090;-84
2021/11/20 04:05:46;;;;;;;26.33;17.77;;;12.10;93.90;;;;;;5042384;28;20484;-82
2021/11/20 04:08:12;;;;;;;27.38;18.02;;;12.20;93.80;;;;;;5042828;28;20086;-82
2021/11/20 04:10:37;;;;;;;22.30;16.98;;;12.30;93.80;;;;;;5024331;28;20590;-82
2021/11/20 04:13:03;;;;;;;22.85;16.67;;;12.20;93.80;;;;;;5024981;28;20021;-83
2021/11/20 04:15:29;;;;;;;23.75;17.20;;;12.20;93.70;;;;;;5024321;28;20025;-81
2021/11/20 04:17:54;;;;;;;24.52;17.13;;;12.20;93.80;;;;;;5024279;28;20480;-82
2021/11/20 04:20:22;;;;;;;25.63;17.55;;;12.20;93.80;;;;;;5024784;28;20443;-83
2021/11/20 04:22:49;;;;;;;22.75;16.60;;;12.20;93.80;;;;;;5024495;28;20041;-81
2021/11/20 04:25:18;;;;;;;25.35;17.70;;;12.20;93.70;;;;;;5042696;28;20040;-82
2021/11/20 04:27:44;;;;;;;25.42;16.90;;;12.20;93.70;;;;;;5043498;28;20021;-82
2021/11/20 04:30:12;;;;;;;22.88;16.60;;;12.10;93.70;;;;;;5023859;28;20071;-83
2021/11/20 04:32:38;;;;;;;21.67;17.23;;;12.20;93.80;;;;;;5042267;28;20024;-81
2021/11/20 04:35:06;;;;;;;21.83;17.52;;;12.30;93.80;;;;;;5024082;28;20025;-82
2021/11/20 04:37:32;;;;;;;22.95;17.10;;;12.20;93.70;;;;;;5042473;28;20487;-82
2021/11/20 04:39:58;;;;;;;22.83;17.92;;;12.20;93.70;;;;;;5023657;28;20045;-81
2021/11/20 04:42:24;;;;;;;23.40;17.60;;;12.20;93.80;;;;;;5023741;28;20093;-82
2021/11/20 04:44:50;;;;;;;22.40;17.42;;;12.20;93.80;;;;;;5042518;28;20461;-83
2021/11/20 04:47:16;;;;;;;21.15;17.00;;;12.20;93.70;;;;;;5024102;28;20030;-82
2021/11/20 04:49:41;;;;;;;22.63;17.15;;;12.20;93.70;;;;;;5023986;28;20065;-82
2021/11/20 04:52:07;;;;;;;22.50;17.20;;;12.20;93.70;;;;;;5023719;28;20025;-84
2021/11/20 04:54:33;;;;;;;22.75;16.55;;;12.20;93.70;;;;;;5023864;28;20044;-83
2021/11/20 04:56:59;;;;;;;24.13;18.25;;;12.10;93.60;;;;;;5023613;28;20485;-82
2021/11/20 04:59:24;;;;;;;22.02;17.30;;;12.10;93.70;;;;;;5023959;28;20533;-82
2021/11/20 05:01:50;;;;;;;22.58;17.80;;;12.20;93.70;;;;;;5042289;28;20095;-83
2021/11/20 05:04:16;;;;;;;22.08;17.77;;;12.00;93.60;;;;;;5023385;28;20022;-84
2021/11/20 05:06:42;;;;;;;21.73;17.60;;;12.10;93.60;;;;;;5024008;28;20025;-85
2021/11/20 05:09:07;;;;;;;23.25;17.60;;;12.20;93.60;;;;;;5041523;28;20151;-82
2021/11/20 05:11:33;;;;;;;22.10;17.65;;;12.10;93.60;;;;;;5040925;28;20108;-82
2021/11/20 05:14:00;;;;;;;22.23;17.08;;;12.20;93.60;;;;;;5040759;28;20481;-82
2021/11/20 05:16:26;;;;;;;20.67;16.73;;;12.10;93.60;;;;;;5040829;28;20022;-84
2021/11/20 05:18:52;;;;;;;21.63;16.98;;;12.20;93.60;;;;;;5023708;28;20056;-82
2021/11/20 05:21:19;;;;;;;20.65;16.85;;;12.20;93.60;;;;;;5022917;28;20400;-82
2021/11/20 05:23:46;;;;;;;20.95;17.05;;;12.20;93.60;;;;;;5023959;28;20021;-81
2021/11/20 05:26:12;;;;;;;19.65;15.93;;;12.20;93.60;;;;;;5040973;28;20025;-83
2021/11/20 05:28:41;;;;;;;21.10;17.40;;;12.20;93.60;;;;;;5023380;28;20043;-82
2021/11/20 05:31:06;;;;;;;20.45;16.88;;;12.10;93.60;;;;;;5022647;28;20030;-81
2021/11/20 05:33:43;;;;;;;21.05;17.25;;;12.20;93.60;;;;;;5023491;28;20517;-81
2021/11/20 05:36:10;;;;;;;20.08;15.98;;;12.20;93.60;;;;;;5022536;28;20493;-81
2021/11/20 05:38:36;;;;;;;21.33;16.83;;;12.10;93.60;;;;;;5024049;28;20052;-84
2021/11/20 05:41:03;;;;;;;19.42;15.93;;;12.20;93.60;;;;;;5022745;28;20469;-83
2021/11/20 05:43:29;;;;;;;19.73;16.13;;;12.20;93.60;;;;;;5023218;28;20037;-81
2021/11/20 05:45:58;;;;;;;21.13;16.48;;;12.20;93.60;;;;;;5040966;28;20022;-81
2021/11/20 05:48:24;;;;;;;20.10;16.05;;;12.20;93.60;;;;;;5021858;28;20034;-84
2021/11/20 05:50:51;;;;;;;20.33;16.58;;;12.30;93.60;;;;;;5022207;28;20033;-82
2021/11/20 05:53:21;;;;;;;20.85;17.15;;;12.20;93.80;;;;;;5041589;28;20025;-82
2021/11/20 05:55:49;;;;;;;20.17;17.05;;;12.20;93.60;;;;;;5022075;28;20034;-82
2021/11/20 05:58:15;;;;;;;22.65;16.20;;;12.10;93.50;;;;;;5040730;28;20021;-83
2021/11/20 06:00:48;;;;;;;19.67;16.38;;;12.20;93.60;;;;;;5022876;28;20025;-82
2021/11/20 06:03:14;;;;;;;20.40;15.95;;;12.20;93.60;;;;;;5018825;28;20021;-83
2021/11/20 06:05:41;;;;;;;18.80;15.60;;;12.20;93.70;;;;;;5040220;28;20045;-82
2021/11/20 06:08:08;;;;;;;20.35;15.75;;;12.20;93.70;;;;;;5002733;28;20025;-84
2021/11/20 06:10:36;;;;;;;18.38;15.48;;;12.20;93.50;;;;;;5003256;28;20033;-82
2021/11/20 06:13:05;;;;;;;17.38;14.85;;;12.30;93.60;;;;;;5003461;28;20041;-82
2021/11/20 06:15:30;;;;;;;19.33;15.48;;;12.20;93.50;;;;;;5003291;28;20125;-82
2021/11/20 06:17:56;;;;;;;19.02;15.77;;;12.30;93.50;;;;;;5002717;28;20493;-81
2021/11/20 06:20:22;;;;;;;19.85;16.30;;;12.20;93.40;;;;;;5003188;28;20045;-82
2021/11/20 06:22:48;;;;;;;19.83;15.88;;;12.30;93.40;;;;;;5021075;28;20029;-82
2021/11/20 06:25:14;;;;;;;18.77;14.80;;;12.40;93.40;;;;;;5002733;28;20574;-82
2021/11/20 06:27:39;;;;;;;18.35;14.57;;;12.30;93.30;;;;;;5021497;28;20026;-82
2021/11/20 06:30:10;;;;;;;18.20;14.85;;;12.30;93.30;;;;;;5003111;28;20026;-82
2021/11/20 06:32:37;;;;;;;19.40;15.40;;;12.30;93.30;;;;;;5003561;28;20030;-81
2021/11/20 06:35:03;;;;;;;20.23;14.95;;;12.30;93.30;;;;;;5002407;28;20034;-82
2021/11/20 06:37:29;;;;;;;17.92;14.65;;;12.30;93.30;;;;;;5002915;28;20030;-81
2021/11/20 06:39:54;;;;;;;19.17;15.15;;;12.40;93.20;;;;;;5003052;28;20018;-82
2021/11/20 06:42:20;;;;;;;18.88;15.52;;;12.40;93.20;;;;;;5002651;28;20022;-82
2021/11/20 06:44:47;;;;;;;18.95;15.60;;;12.40;93.30;;;;;;5002783;28;20078;-84
2021/11/20 06:47:13;;;;;;;18.38;15.77;;;12.30;93.30;;;;;;5002497;28;20405;-85
2021/11/20 06:52:11;;;;;;;20.67;16.23;;;12.30;93.40;;;;;;5122557;23;20439;-78
2021/11/20 06:54:38;;;;;;;19.20;15.52;;;12.30;93.40;;;;;;5071698;28;20025;-78
2021/11/20 06:57:05;;;;;;;18.95;15.60;;;12.20;93.40;;;;;;5071882;28;20067;-79
2021/11/20 07:02:31;;;;;;;18.40;15.63;;;12.20;93.50;;;;;;5049169;28;20561;-77
2021/11/20 07:04:57;;;;;;;20.92;16.65;;;12.20;93.50;;;;;;5048043;28;20025;-78
2021/11/20 07:07:23;;;;;;;19.27;15.85;;;12.20;93.50;;;;;;5041981;28;20083;-76
2021/11/20 07:09:49;;;;;;;19.85;16.10;;;12.20;93.50;;;;;;5031534;28;20037;-77
2021/11/20 07:12:15;;;;;;;20.80;16.00;;;12.20;93.60;;;;;;5049030;28;20028;-77
2021/11/20 07:14:41;;;;;;;19.42;15.85;;;12.20;93.60;;;;;;5048436;28;20021;-79
2021/11/20 07:17:07;;;;;;;19.77;16.52;;;12.20;93.60;;;;;;5048371;28;20037;-78
2021/11/20 07:19:32;;;;;;;20.00;15.95;;;12.20;93.60;;;;;;5051147;28;20024;-78
2021/11/20 07:21:58;;;;;;;20.45;16.30;;;12.20;93.50;;;;;;5047396;28;20731;-78
2021/11/20 07:24:23;;;;;;;19.00;15.60;;;12.20;93.60;;;;;;5046942;28;20326;-78
2021/11/20 07:26:50;;;;;;;18.92;15.40;;;12.20;93.60;;;;;;5046997;28;20040;-79
2021/11/20 07:29:17;;;;;;;20.17;15.55;;;12.20;93.60;;;;;;5047390;28;20067;-78
2021/11/20 07:31:43;;;;;;;20.25;16.27;;;12.20;93.60;;;;;;5048519;28;20068;-78
2021/11/20 07:34:10;;;;;;;18.13;15.15;;;12.20;93.60;;;;;;5050802;28;20032;-78
2021/11/20 07:36:36;;;;;;;19.02;15.68;;;12.20;93.60;;;;;;5050936;28;20052;-78
2021/11/20 07:39:08;;;;;;;20.83;15.82;;;12.20;93.60;;;;;;5050735;28;20506;-78
2021/11/20 07:41:34;;;;;;;21.30;16.55;;;12.20;93.50;;;;;;5050692;28;20025;-79
2021/11/20 07:44:00;;;;;;;18.52;15.35;;;12.20;93.60;;;;;;5050089;28;20028;-77
2021/11/20 07:46:25;;;;;;;19.33;15.65;;;12.00;93.70;;;;;;5051460;28;20033;-78
2021/11/20 07:48:51;;;;;;;20.08;15.52;;;12.20;93.50;;;;;;5050646;28;20349;-78
2021/11/20 07:51:19;;;;;;;19.85;15.43;;;12.20;93.50;;;;;;5050267;28;20511;-77
2021/11/20 07:53:45;;;;;;;18.15;14.82;;;12.20;93.50;;;;;;5049378;28;20875;-77
2021/11/20 07:56:12;;;;;;;18.80;15.32;;;12.20;93.50;;;;;;5049665;28;20049;-79
2021/11/20 07:58:39;;;;;;;19.08;15.35;;;12.20;93.40;;;;;;5050267;28;20020;-77
2021/11/20 08:01:05;;;;;;;19.13;15.60;;;12.20;93.40;;;;;;5051382;28;20029;-78
2021/11/20 08:03:32;;;;;;;19.83;15.68;;;12.20;93.40;;;;;;5049869;28;20029;-77
2021/11/20 08:05:58;;;;;;;19.35;15.52;;;12.10;93.40;;;;;;5049433;28;20021;-76
2021/11/20 08:08:23;;;;;;;18.67;14.85;;;12.20;93.40;;;;;;5049839;28;20522;-77
2021/11/20 08:10:50;;;;;;;23.13;15.27;;;12.20;93.40;;;;;;5049585;28;20036;-79
2021/11/20 08:13:17;;;;;;;19.48;14.93;;;12.10;93.30;;;;;;5050449;28;20040;-79
2021/11/20 08:15:47;;;;;;;19.63;15.10;;;12.20;93.30;;;;;;5048650;28;20104;-79
2021/11/20 08:18:13;;;;;;;20.17;15.57;;;12.20;93.40;;;;;;5052724;28;20488;-78
2021/11/20 08:20:42;;;;;;;20.35;15.73;;;12.30;93.50;;;;;;5050418;28;20032;-77
2021/11/20 08:23:10;;;;;;;19.00;15.20;;;12.30;93.40;;;;;;5033687;28;20024;-78
2021/11/20 08:25:38;;;;;;;18.15;15.05;;;12.20;93.40;;;;;;5050826;28;20025;-78
2021/11/20 08:28:05;;;;;;;20.55;15.13;;;12.30;93.40;;;;;;5050024;28;20551;-79
2021/11/20 08:30:31;;;;;;;19.70;14.80;;;12.20;93.40;;;;;;5049914;28;20025;-77
2021/11/20 08:32:58;;;;;;;17.25;13.95;;;12.10;93.40;;;;;;5048963;28;20622;-76
2021/11/20 08:35:26;;;;;;;20.85;15.27;;;12.20;93.40;;;;;;5050340;28;20025;-78
2021/11/20 08:37:53;;;;;;;18.45;14.98;;;12.20;93.40;;;;;;5050305;28;20120;-79
2021/11/20 08:40:22;;;;;;;18.30;14.27;;;12.10;93.60;;;;;;5050794;28;20025;-77
2021/11/20 08:42:48;;;;;;;17.60;13.75;;;12.10;93.40;;;;;;5050002;28;20059;-78
2021/11/20 08:45:17;;;;;;;17.42;13.45;;;12.10;93.30;;;;;;5052491;28;20029;-79
2021/11/20 08:47:44;;;;;;;18.02;14.00;;;12.20;93.40;;;;;;5049556;28;20043;-77
2021/11/20 08:50:14;;;;;;;20.90;14.25;;;12.20;93.30;;;;;;5049533;28;20032;-77
2021/11/20 08:52:40;;;;;;;17.00;13.95;;;12.20;93.40;;;;;;5049617;28;20095;-78
2021/11/20 08:55:08;;;;;;;18.75;14.15;;;12.20;93.30;;;;;;5050614;28;20025;-78
2021/11/20 08:57:34;;;;;;;17.58;14.02;;;12.20;93.30;;;;;;5051413;28;20082;-79
2021/11/20 09:00:00;;;;;;;19.42;13.80;;;12.20;93.30;;;;;;5049933;28;20036;-78
2021/11/20 09:02:38;;;;;;;17.45;13.57;;;12.20;93.30;;;;;;5050163;28;20029;-79
2021/11/20 09:05:32;;;;;;;17.92;13.75;;;12.20;93.30;;;;;;5048631;28;20730;-79
2021/11/20 09:08:25;;;;;;;18.08;13.18;;;12.20;93.30;;;;;;5044815;28;20017;-77
2021/11/20 09:10:57;;;;;;;17.63;13.68;;;12.20;93.30;;;;;;5056090;28;20029;-78
2021/11/20 09:13:35;;;;;;;18.38;13.15;;;12.20;93.30;;;;;;5033336;28;20025;-79
2021/11/20 09:16:16;;;;;;;17.67;13.75;;;12.20;93.20;;;;;;5032661;28;20025;-77
2021/11/20 09:18:42;;;;;;;18.42;13.75;;;12.20;93.20;;;;;;5033145;28;20511;-77
2021/11/20 09:21:11;;;;;;;17.40;14.25;;;12.20;93.20;;;;;;5032065;28;20032;-77
2021/11/20 09:23:38;;;;;;;18.92;13.82;;;12.20;93.20;;;;;;5032315;28;20025;-78
2021/11/20 09:26:04;;;;;;;17.55;14.30;;;12.30;93.20;;;;;;5031929;28;20021;-79
2021/11/20 09:28:30;;;;;;;17.70;13.23;;;12.20;93.10;;;;;;5032737;28;20040;-78
2021/11/20 09:30:59;;;;;;;16.58;13.43;;;12.20;93.20;;;;;;5032275;28;20594;-79
2021/11/20 09:33:25;;;;;;;19.45;14.50;;;12.30;93.20;;;;;;5050519;28;20032;-76
2021/11/20 09:35:52;;;;;;;18.27;13.93;;;12.30;93.10;;;;;;5032932;28;20339;-77
2021/11/20 09:38:20;;;;;;;18.77;14.20;;;12.30;93.10;;;;;;5032979;28;20032;-78
2021/11/20 09:41:08;;;;;;;18.67;14.20;;;12.30;93.00;;;;;;5031988;28;20566;-79
2021/11/20 09:43:38;;;;;;;18.58;14.55;;;12.30;93.00;;;;;;5001165;28;20500;-77
2021/11/20 09:46:08;;;;;;;17.58;14.00;;;12.30;92.90;;;;;;5031680;28;20674;-79
2021/11/20 09:48:41;;;;;;;18.38;14.63;;;12.40;92.90;;;;;;5037700;28;20029;-77
2021/11/20 09:51:34;;;;;;;20.40;14.38;;;12.40;92.80;;;;;;5049477;28;20037;-78
2021/11/20 09:54:09;;;;;;;19.05;13.95;;;12.40;92.70;;;;;;5049530;28;20041;-79
2021/11/20 09:57:10;;;;;;;20.15;14.95;;;12.40;92.60;;;;;;5033030;28;20033;-78
2021/11/20 09:59:40;;;;;;;20.50;15.10;;;12.40;92.70;;;;;;5030382;28;20044;-79
2021/11/20 10:02:23;;;;;;;20.42;14.90;;;12.40;92.60;;;;;;5039597;28;20025;-81
2021/11/20 10:04:52;;;;;;;20.65;15.15;;;12.40;92.70;;;;;;5034499;28;20019;-80
2021/11/20 10:07:34;;;;;;;22.75;16.92;;;12.40;92.70;;;;;;5034100;28;20040;-78
2021/11/20 10:10:14;;;;;;;23.13;15.40;;;12.40;92.60;;;;;;5030256;28;20120;-78
2021/11/20 10:12:44;;;;;;;21.65;16.45;;;12.40;92.60;;;;;;5030629;28;20079;-79
2021/11/20 10:15:18;;;;;;;22.60;16.60;;;12.40;92.60;;;;;;5030180;28;20488;-79
2021/11/20 10:17:57;;;;;;;24.30;18.25;;;12.40;92.60;;;;;;5030780;28;20032;-79
2021/11/20 10:20:38;;;;;;;26.77;18.30;;;12.30;92.60;;;;;;5030512;28;20024;-79
2021/11/20 10:23:09;;;;;;;25.27;17.77;;;12.30;92.70;;;;;;5030319;28;20104;-78
2021/11/20 10:25:47;;;;;;;25.45;17.55;;;12.30;92.70;;;;;;5030308;28;20037;-79
2021/11/20 10:28:27;;;;;;;25.88;19.55;;;12.30;92.80;;;;;;5030084;28;20391;-79
2021/11/20 10:30:59;;;;;;;25.70;18.33;;;12.30;92.80;;;;;;5048573;28;20051;-78
2021/11/20 10:33:34;;;;;;;26.83;18.88;;;12.30;92.80;;;;;;5030394;28;20040;-78
2021/11/20 10:36:05;;;;;;;28.23;19.88;;;12.30;92.80;;;;;;5029437;28;20032;-77
2021/11/20 10:38:35;;;;;;;;;;;12.30;92.80;;;;;;5048603;28;20025;-78
2021/11/20 10:41:05;;;;;;;28.33;19.35;;;12.20;92.80;;;;;;5047860;28;20303;-78
2021/11/20 10:43:48;;;;;;;28.23;19.98;;;12.30;92.80;;;;;;5045307;28;20103;-78
2021/11/20 10:46:32;;;;;;;28.80;19.27;;;12.30;92.80;;;;;;5041400;28;20123;-78
2021/11/20 10:49:25;;;;;;;29.13;19.73;;;12.30;92.80;;;;;;5046068;28;20063;-78
2021/11/20 10:52:24;;;;;;;29.77;20.55;;;12.30;92.80;;;;;;5046592;28;20499;-77
2021/11/20 10:55:05;;;;;;;30.35;20.25;;;12.30;92.80;;;;;;5042067;28;20045;-78
2021/11/20 10:57:37;;;;;;;28.95;20.05;;;12.30;92.80;;;;;;5041990;28;20030;-78
2021/11/20 11:00:40;;;;;;;29.02;20.00;;;12.30;92.80;;;;;;5045188;28;20025;-78
2021/11/20 11:03:28;;;;;;;29.70;20.00;;;12.30;92.80;;;;;;5047242;28;20076;-78
2021/11/20 11:06:15;;;;;;;27.40;19.88;;;12.10;92.80;;;;;;5056016;28;20071;-79
2021/11/20 11:09:09;;;;;;;29.73;19.80;;;12.30;92.80;;;;;;5052459;28;20442;-77
2021/11/20 11:11:37;;;;;;;30.05;19.92;;;12.30;92.80;;;;;;5042104;28;20094;-78
2021/11/20 11:14:03;;;;;;;31.77;21.80;;;12.20;92.80;;;;;;5051268;28;20062;-77
2021/11/20 11:16:41;;;;;;;30.63;21.13;;;12.30;92.70;;;;;;5052204;28;20434;-78
2021/11/20 11:19:25;;;;;;;32.67;21.38;;;12.20;92.60;;;;;;5050913;28;20021;-78
2021/11/20 11:22:01;;;;;;;31.50;21.45;;;12.20;92.70;;;;;;5051559;28;20025;-78
2021/11/20 11:24:57;;;;;;;32.50;21.73;;;12.30;92.70;;;;;;5049998;28;20120;-77
2021/11/20 11:28:04;;;;;;;33.08;22.20;;;12.30;92.70;;;;;;5025386;28;20044;-77
2021/11/20 11:30:55;;;;;;;31.42;21.27;;;12.30;92.70;;;;;;5049684;28;20562;-77
2021/11/20 11:33:21;;;;;;;33.80;22.58;;;12.30;92.70;;;;;;5033835;28;20028;-78
2021/11/20 11:36:06;;;;;;;30.83;21.60;;;12.20;92.70;;;;;;5033982;28;20037;-76
2021/11/20 11:39:17;;;;;;;32.15;21.67;;;12.30;92.60;;;;;;5040097;28;20049;-78
2021/11/20 11:41:57;;;;;;;33.97;22.27;;;12.30;92.70;;;;;;5048820;28;20485;-79
2021/11/20 11:44:36;;;;;;;30.67;20.48;;;12.30;92.70;;;;;;5047193;28;20484;-78
2021/11/20 11:47:22;;;;;;;31.80;21.88;;;12.20;92.60;;;;;;5048152;28;20790;-79
2021/11/20 11:50:16;;;;;;;31.85;21.70;;;12.30;92.60;;;;;;5048179;28;20110;-79
2021/11/20 11:53:22;;;;;;;30.95;21.23;;;12.20;92.60;;;;;;5048678;28;20362;-78
2021/11/20 11:55:48;;;;;;;32.55;22.00;;;12.20;92.40;;;;;;5014753;28;20041;-80
2021/11/20 11:58:32;;;;;;;31.98;21.83;;;12.20;92.40;;;;;;5035407;28;20044;-79
2021/11/20 12:01:15;;;;;;;33.63;22.30;;;12.20;92.30;;;;;;5032670;28;20014;-79
2021/11/20 12:03:44;;;;;;;32.40;22.75;;;12.10;92.30;;;;;;5049571;28;20029;-79
2021/11/20 12:06:39;;;;;;;34.97;23.67;;;12.20;92.30;;;;;;5049484;28;20495;-79
2021/11/20 12:09:20;;;;;;;32.25;22.42;;;12.20;92.20;;;;;;5027596;28;20504;-78
2021/11/20 12:11:48;;;;;;;31.38;21.75;;;12.20;92.20;;;;;;5033621;28;20519;-80
2021/11/20 12:14:13;;;;;;;32.65;22.15;;;12.10;92.10;;;;;;5036760;28;20078;-79
2021/11/20 12:17:01;;;;;;;31.02;21.25;;;12.30;92.30;;;;;;5034392;28;20490;-79
2021/11/20 12:19:45;;;;;;;30.90;21.55;;;12.20;92.10;;;;;;5049603;28;20424;-80
2021/11/20 12:22:51;;;;;;;32.05;21.85;;;12.30;92.10;;;;;;5032238;28;20052;-81
2021/11/20 12:25:48;;;;;;;33.15;21.70;;;12.20;92.20;;;;;;5032919;28;20018;-80
2021/11/20 12:28:33;;;;;;;32.47;21.98;;;12.20;92.00;;;;;;5053930;28;20036;-80
2021/11/20 12:31:10;;;;;;;35.78;21.95;;;12.20;92.10;;;;;;5031602;28;20043;-77
2021/11/20 12:33:57;;;;;;;30.83;21.23;;;12.20;92.20;;;;;;5060378;28;20033;-77
2021/11/20 12:36:42;;;;;;;36.03;21.17;;;12.20;92.10;;;;;;5047812;28;20086;-77
2021/11/20 12:39:38;;;;;;;30.60;21.35;;;12.20;92.00;;;;;;5031964;28;20017;-79
2021/11/20 12:42:43;;;;;;;34.20;22.08;;;12.20;92.10;;;;;;5043935;28;20024;-77
2021/11/20 12:45:28;;;;;;;34.85;22.15;;;12.20;92.00;;;;;;5035205;28;20687;-79
2021/11/20 12:48:26;;;;;;;31.67;22.52;;;12.20;91.60;;;;;;5047182;28;20041;-77
2021/11/20 12:51:08;;;;;;;33.90;22.27;;;12.20;91.70;;;;;;5030749;28;20033;-76
2021/11/20 12:53:54;;;;;;;33.22;22.70;;;12.20;91.70;;;;;;5049062;28;20083;-77
2021/11/20 12:56:36;;;;;;;31.77;21.38;;;12.20;91.70;;;;;;5028007;28;20049;-76
2021/11/20 12:59:21;;;;;;;;;;;12.20;91.80;;;;;;5045661;28;20021;-76